Aérodrome :
LOGIN :

S'inscrire | Disclaimer

   EN    FR    IT 

 










Légende :    VFR   VFR Marginal   IFR   IFR Intensif   IFR Très Intensif
Visi : 
Plafond : 
>= 8 km
>= 3000ft
5 à 8 km
1000 à 3000 ft
1500m à 5 km
500 à 1000 ft
800 à 1500m
200 à 500 ft
< 800m
< 200 ft
Symboles :   Orages  Brouillard  Fortes neiges  Fortes précipitations  Vent > 20 kt
SIGMETs :   Divers  Orages  Givrage  Turbulence  Onde Orograph.  Cendres Volcan.







- Altitude de l'aérodrome : 74 ft
- Code IATA : EIN


EHEH - Eindhoven

DERNIER METAR :
  • 180155Z AUTO 05007KT 9999 FEW037 SCT042 OVC046 13/12 Q1015 BLU

METARs EXPIRÉS :
  • 180125Z AUTO 03008KT 9999 SCT043 BKN047 BKN280 13/12 Q1015 BLU
  • 180055Z AUTO 02006KT 9000 BR OVC044 13/12 Q1015 BLU
  • 180025Z AUTO 01005KT 9000 BR FEW041 OVC046 12/11 Q1015 BLU
  • 180017Z AUTO 36004KT 9000 BR FEW041 BKN047 12/11 Q1015 BLU
  • 172355Z AUTO 05002KT 9999 BKN046 12/11 Q1016 BLU
  • 172325Z AUTO 03003KT 9999 OVC045 13/12 Q1016 BLU
  • 172257Z AUTO 04004KT 9999 FEW043 OVC047 14/12 Q1016 BLU

TAF COR TAF EHEH
Valide du 18 à 00h jusqu'au 19 à 06h UTC


172333Z 1800/1906 04003KT 9999 OVC045
PROB40
TEMPO 1803/1808 4500 BR FEW040
BECMG 1808/1811 18006KT
Pas de NOTAMs connus pour ce terrain.



MET'MAP, la Météo Aéronautique d'un coup d'oeil ! - Copyright ORBIFLY Décembre 2007 - Disclaimer

ORBIFLY MET'MAP TEAM :

Programmation & Développement : Alexandra Zaïnal
Conception & Développement : Baudouin d'Aumeries
Co-Programmation & Développement : Marc-Olivier Méhu
Soutien technique & logistique : Manuel Goepfert

Contact : metmap@orbifly.com




SOURCES & CREDITS :

   NOAA